sensor_id;sensor_type;location;lat;lon;timestamp;pressure;altitude;pressure_sealevel;temperature;humidity
84483;BME280;74703;51.284;22.590;2024-02-23T00:03:15;97835.91;;;6.99;75.15
84483;BME280;74703;51.284;22.590;2024-02-23T00:08:15;97821.69;;;6.92;75.33
84483;BME280;74703;51.284;22.590;2024-02-23T00:13:16;97808.47;;;6.82;75.65
84483;BME280;74703;51.284;22.590;2024-02-23T00:18:17;97801.19;;;6.88;75.42
84483;BME280;74703;51.284;22.590;2024-02-23T00:23:18;97812.81;;;6.96;76.01
84483;BME280;74703;51.284;22.590;2024-02-23T00:28:19;97808.38;;;6.98;76.12
84483;BME280;74703;51.284;22.590;2024-02-23T00:33:20;97804.75;;;6.86;76.95
84483;BME280;74703;51.284;22.590;2024-02-23T00:38:20;97785.13;;;6.98;75.76
84483;BME280;74703;51.284;22.590;2024-02-23T00:43:21;97781.72;;;7.11;76.11
84483;BME280;74703;51.284;22.590;2024-02-23T00:48:24;97777.00;;;7.04;76.22
84483;BME280;74703;51.284;22.590;2024-02-23T00:53:24;97781.59;;;7.13;76.57
84483;BME280;74703;51.284;22.590;2024-02-23T00:58:26;97768.13;;;7.08;76.76
84483;BME280;74703;51.284;22.590;2024-02-23T01:03:27;97754.28;;;7.09;76.67
84483;BME280;74703;51.284;22.590;2024-02-23T01:08:27;97767.47;;;7.19;76.70
84483;BME280;74703;51.284;22.590;2024-02-23T01:13:28;97767.66;;;7.16;76.79
84483;BME280;74703;51.284;22.590;2024-02-23T01:18:29;97766.53;;;7.20;76.86
84483;BME280;74703;51.284;22.590;2024-02-23T01:23:30;97774.69;;;7.28;76.71
84483;BME280;74703;51.284;22.590;2024-02-23T01:28:30;97765.34;;;7.25;76.88
84483;BME280;74703;51.284;22.590;2024-02-23T01:33:31;97749.38;;;7.19;76.70
84483;BME280;74703;51.284;22.590;2024-02-23T01:38:32;97754.47;;;7.20;76.86
84483;BME280;74703;51.284;22.590;2024-02-23T01:43:33;97748.53;;;7.32;76.27
84483;BME280;74703;51.284;22.590;2024-02-23T01:48:33;97742.25;;;7.37;77.20
84483;BME280;74703;51.284;22.590;2024-02-23T01:53:35;97733.47;;;7.25;77.35
84483;BME280;74703;51.284;22.590;2024-02-23T01:58:37;97752.41;;;7.40;77.40
84483;BME280;74703;51.284;22.590;2024-02-23T02:03:38;97743.25;;;7.34;77.08
84483;BME280;74703;51.284;22.590;2024-02-23T02:08:39;97741.56;;;7.47;76.82
84483;BME280;74703;51.284;22.590;2024-02-23T02:13:41;97720.72;;;7.36;76.79
84483;BME280;74703;51.284;22.590;2024-02-23T02:18:42;97738.69;;;7.52;76.15
84483;BME280;74703;51.284;22.590;2024-02-23T02:23:44;97737.94;;;7.50;76.31
84483;BME280;74703;51.284;22.590;2024-02-23T02:28:45;97740.16;;;7.56;76.34
84483;BME280;74703;51.284;22.590;2024-02-23T02:33:46;97712.84;;;7.38;76.12
84483;BME280;74703;51.284;22.590;2024-02-23T02:38:47;97706.56;;;7.42;75.85
84483;BME280;74703;51.284;22.590;2024-02-23T02:43:47;97704.81;;;7.42;75.89
84483;BME280;74703;51.284;22.590;2024-02-23T02:48:48;97716.03;;;7.55;75.67
84483;BME280;74703;51.284;22.590;2024-02-23T02:53:48;97716.34;;;7.51;75.88
84483;BME280;74703;51.284;22.590;2024-02-23T02:58:49;97701.47;;;7.40;75.56
84483;BME280;74703;51.284;22.590;2024-02-23T03:03:50;97723.72;;;7.57;75.59
84483;BME280;74703;51.284;22.590;2024-02-23T03:08:50;97712.06;;;7.50;75.36
84483;BME280;74703;51.284;22.590;2024-02-23T03:13:52;97724.78;;;7.67;74.43
84483;BME280;74703;51.284;22.590;2024-02-23T03:18:52;97720.56;;;7.66;74.41
84483;BME280;74703;51.284;22.590;2024-02-23T03:23:54;97741.66;;;7.87;73.88
84483;BME280;74703;51.284;22.590;2024-02-23T03:28:55;97742.69;;;7.85;74.17
84483;BME280;74703;51.284;22.590;2024-02-23T03:33:55;97747.31;;;8.07;73.19
84483;BME280;74703;51.284;22.590;2024-02-23T03:38:56;97733.38;;;7.95;73.47
84483;BME280;74703;51.284;22.590;2024-02-23T03:43:57;97751.03;;;8.02;73.76
84483;BME280;74703;51.284;22.590;2024-02-23T03:48:59;97741.94;;;7.83;74.65
84483;BME280;74703;51.284;22.590;2024-02-23T03:53:59;97742.75;;;7.83;75.77
84483;BME280;74703;51.284;22.590;2024-02-23T03:59:00;97760.88;;;7.83;76.09
84483;BME280;74703;51.284;22.590;2024-02-23T04:04:00;97740.44;;;7.66;76.53
84483;BME280;74703;51.284;22.590;2024-02-23T04:09:01;97747.25;;;7.67;77.18
84483;BME280;74703;51.284;22.590;2024-02-23T04:14:02;97744.88;;;7.64;76.68
84483;BME280;74703;51.284;22.590;2024-02-23T04:19:05;97743.53;;;7.71;76.11
84483;BME280;74703;51.284;22.590;2024-02-23T04:24:06;97751.06;;;7.61;76.00
84483;BME280;74703;51.284;22.590;2024-02-23T04:29:08;97725.38;;;7.58;76.14
84483;BME280;74703;51.284;22.590;2024-02-23T04:34:08;97747.91;;;7.70;76.53
84483;BME280;74703;51.284;22.590;2024-02-23T04:39:09;97756.91;;;7.77;76.92
84483;BME280;74703;51.284;22.590;2024-02-23T04:44:09;97754.41;;;7.63;77.60
84483;BME280;74703;51.284;22.590;2024-02-23T04:49:10;97763.63;;;7.67;77.72
84483;BME280;74703;51.284;22.590;2024-02-23T04:54:12;97760.97;;;7.54;77.92
84483;BME280;74703;51.284;22.590;2024-02-23T04:59:13;97752.22;;;7.43;78.38
84483;BME280;74703;51.284;22.590;2024-02-23T05:04:13;97772.53;;;7.49;78.88
84483;BME280;74703;51.284;22.590;2024-02-23T05:09:14;97770.06;;;7.33;79.42
84483;BME280;74703;51.284;22.590;2024-02-23T05:14:14;97773.75;;;7.29;79.71
84483;BME280;74703;51.284;22.590;2024-02-23T05:19:15;97800.44;;;7.44;79.98
84483;BME280;74703;51.284;22.590;2024-02-23T05:24:17;97797.88;;;7.29;80.68
84483;BME280;74703;51.284;22.590;2024-02-23T05:29:17;97799.34;;;7.33;80.47
84483;BME280;74703;51.284;22.590;2024-02-23T05:34:21;97814.88;;;7.33;80.92
84483;BME280;74703;51.284;22.590;2024-02-23T05:39:22;97806.34;;;7.31;81.02
84483;BME280;74703;51.284;22.590;2024-02-23T05:44:23;97798.25;;;7.23;81.19
84483;BME280;74703;51.284;22.590;2024-02-23T05:49:23;97831.78;;;7.39;81.22
84483;BME280;74703;51.284;22.590;2024-02-23T05:54:24;97842.22;;;7.38;81.59
84483;BME280;74703;51.284;22.590;2024-02-23T05:59:24;97837.16;;;7.36;81.40
84483;BME280;74703;51.284;22.590;2024-02-23T06:04:25;97830.84;;;7.26;82.31
84483;BME280;74703;51.284;22.590;2024-02-23T06:09:27;97852.84;;;7.19;83.00
84483;BME280;74703;51.284;22.590;2024-02-23T06:14:28;97842.09;;;7.10;83.26
84483;BME280;74703;51.284;22.590;2024-02-23T06:19:28;97868.38;;;7.33;82.99
84483;BME280;74703;51.284;22.590;2024-02-23T06:24:29;97875.66;;;7.41;83.14
84483;BME280;74703;51.284;22.590;2024-02-23T06:29:30;97877.31;;;7.27;83.58
84483;BME280;74703;51.284;22.590;2024-02-23T06:34:32;97859.13;;;7.15;84.00
84483;BME280;74703;51.284;22.590;2024-02-23T06:39:32;97882.56;;;7.26;84.12
84483;BME280;74703;51.284;22.590;2024-02-23T06:44:33;97892.50;;;7.33;84.46
84483;BME280;74703;51.284;22.590;2024-02-23T06:49:34;97896.44;;;7.25;84.37
84483;BME280;74703;51.284;22.590;2024-02-23T06:54:35;97881.75;;;7.11;85.24
84483;BME280;74703;51.284;22.590;2024-02-23T06:59:36;97889.88;;;7.19;85.12
84483;BME280;74703;51.284;22.590;2024-02-23T07:04:36;97898.84;;;7.28;84.76
84483;BME280;74703;51.284;22.590;2024-02-23T07:09:37;97890.53;;;7.23;85.35
84483;BME280;74703;51.284;22.590;2024-02-23T07:14:37;97917.06;;;7.41;85.16
84483;BME280;74703;51.284;22.590;2024-02-23T07:19:38;97917.34;;;7.36;85.42
84483;BME280;74703;51.284;22.590;2024-02-23T07:24:42;97929.00;;;7.57;84.62
84483;BME280;74703;51.284;22.590;2024-02-23T07:29:43;97924.22;;;7.66;84.36
84483;BME280;74703;51.284;22.590;2024-02-23T07:34:44;97898.59;;;7.47;84.66
84483;BME280;74703;51.284;22.590;2024-02-23T07:39:44;97938.44;;;7.73;84.26
84483;BME280;74703;51.284;22.590;2024-02-23T07:44:46;97917.81;;;7.71;83.97
84483;BME280;74703;51.284;22.590;2024-02-23T07:49:47;97931.06;;;7.81;83.28
84483;BME280;74703;51.284;22.590;2024-02-23T07:54:48;97915.53;;;7.81;83.00
84483;BME280;74703;51.284;22.590;2024-02-23T07:59:51;97936.06;;;7.84;83.63
84483;BME280;74703;51.284;22.590;2024-02-23T08:04:54;97931.97;;;7.80;83.63
84483;BME280;74703;51.284;22.590;2024-02-23T08:10:00;97933.91;;;7.76;83.94
84483;BME280;74703;51.284;22.590;2024-02-23T08:15:08;97909.31;;;7.55;84.10
84483;BME280;74703;51.284;22.590;2024-02-23T08:20:20;97921.34;;;7.70;84.16
84483;BME280;74703;51.284;22.590;2024-02-23T08:25:24;97918.84;;;7.83;84.13
84483;BME280;74703;51.284;22.590;2024-02-23T08:30:33;97934.56;;;7.94;84.24
84483;BME280;74703;51.284;22.590;2024-02-23T08:35:41;97920.03;;;7.92;83.89
84483;BME280;74703;51.284;22.590;2024-02-23T08:41:03;97937.72;;;7.99;83.69
84483;BME280;74703;51.284;22.590;2024-02-23T08:46:24;97953.13;;;8.01;84.34
84483;BME280;74703;51.284;22.590;2024-02-23T08:52:01;97966.63;;;8.20;83.43
84483;BME280;74703;51.284;22.590;2024-02-23T09:03:05;97951.09;;;8.20;83.07
84483;BME280;74703;51.284;22.590;2024-02-23T09:08:49;98000.50;;;8.46;83.12
84483;BME280;74703;51.284;22.590;2024-02-23T09:14:06;97966.50;;;8.36;83.40
84483;BME280;74703;51.284;22.590;2024-02-23T09:19:07;97973.19;;;8.40;83.02
84483;BME280;74703;51.284;22.590;2024-02-23T09:24:13;97977.28;;;8.44;83.25
84483;BME280;74703;51.284;22.590;2024-02-23T09:29:15;97981.78;;;8.55;82.51
84483;BME280;74703;51.284;22.590;2024-02-23T09:34:15;98023.47;;;8.79;82.66
84483;BME280;74703;51.284;22.590;2024-02-23T09:39:16;97979.81;;;8.59;82.44
84483;BME280;74703;51.284;22.590;2024-02-23T09:44:18;98015.22;;;8.87;82.70
84483;BME280;74703;51.284;22.590;2024-02-23T09:54:47;97994.28;;;8.90;81.68
84483;BME280;74703;51.284;22.590;2024-02-23T10:00:20;98006.50;;;8.88;81.18
84483;BME280;74703;51.284;22.590;2024-02-23T10:05:34;97998.88;;;8.72;82.49
84483;BME280;74703;51.284;22.590;2024-02-23T10:10:46;98011.03;;;8.57;82.72
84483;BME280;74703;51.284;22.590;2024-02-23T10:15:56;97980.69;;;8.31;83.56
84483;BME280;74703;51.284;22.590;2024-02-23T10:21:04;97991.50;;;8.37;83.11
84483;BME280;74703;51.284;22.590;2024-02-23T10:26:12;98009.81;;;8.63;82.37
84483;BME280;74703;51.284;22.590;2024-02-23T10:31:26;98014.53;;;8.56;82.78
84483;BME280;74703;51.284;22.590;2024-02-23T10:36:30;98019.84;;;8.40;83.08
84483;BME280;74703;51.284;22.590;2024-02-23T10:41:37;98024.34;;;8.37;83.89
84483;BME280;74703;51.284;22.590;2024-02-23T10:46:45;98056.06;;;8.42;84.12
84483;BME280;74703;51.284;22.590;2024-02-23T10:51:47;98055.84;;;8.31;84.45
84483;BME280;74703;51.284;22.590;2024-02-23T10:56:51;98058.91;;;8.23;84.97
84483;BME280;74703;51.284;22.590;2024-02-23T11:01:52;98051.13;;;8.09;85.48
84483;BME280;74703;51.284;22.590;2024-02-23T11:06:55;98042.22;;;8.13;85.61
84483;BME280;74703;51.284;22.590;2024-02-23T11:11:58;98072.13;;;8.18;85.56
84483;BME280;74703;51.284;22.590;2024-02-23T11:16:59;98072.94;;;8.19;85.05
84483;BME280;74703;51.284;22.590;2024-02-23T11:22:01;98069.16;;;8.10;85.53
84483;BME280;74703;51.284;22.590;2024-02-23T11:27:02;98065.47;;;8.14;85.27
84483;BME280;74703;51.284;22.590;2024-02-23T11:32:18;98063.31;;;8.07;85.44
84483;BME280;74703;51.284;22.590;2024-02-23T11:37:18;98077.38;;;8.17;84.98
84483;BME280;74703;51.284;22.590;2024-02-23T11:42:19;98063.88;;;8.12;84.96
84483;BME280;74703;51.284;22.590;2024-02-23T11:47:20;98050.72;;;8.00;84.98
84483;BME280;74703;51.284;22.590;2024-02-23T11:52:21;98067.75;;;8.19;84.45
84483;BME280;74703;51.284;22.590;2024-02-23T11:57:23;98092.75;;;8.20;84.51
84483;BME280;74703;51.284;22.590;2024-02-23T12:02:25;98091.09;;;8.19;85.24
84483;BME280;74703;51.284;22.590;2024-02-23T12:07:26;98086.38;;;8.11;85.67
84483;BME280;74703;51.284;22.590;2024-02-23T12:12:29;98072.84;;;8.06;86.12
84483;BME280;74703;51.284;22.590;2024-02-23T12:17:29;98090.22;;;8.04;86.88
84483;BME280;74703;51.284;22.590;2024-02-23T12:22:30;98098.94;;;8.03;87.29
84483;BME280;74703;51.284;22.590;2024-02-23T12:27:31;98111.41;;;8.11;87.82
84483;BME280;74703;51.284;22.590;2024-02-23T12:32:31;98120.66;;;8.00;88.08
84483;BME280;74703;51.284;22.590;2024-02-23T12:37:35;98115.19;;;7.91;88.58
84483;BME280;74703;51.284;22.590;2024-02-23T12:42:36;98109.38;;;7.87;88.94
84483;BME280;74703;51.284;22.590;2024-02-23T12:47:37;98111.13;;;7.87;89.70
84483;BME280;74703;51.284;22.590;2024-02-23T12:52:39;98113.47;;;8.06;89.41
84483;BME280;74703;51.284;22.590;2024-02-23T12:57:39;98112.47;;;8.08;89.11
84483;BME280;74703;51.284;22.590;2024-02-23T13:02:41;98133.25;;;8.07;88.95
84483;BME280;74703;51.284;22.590;2024-02-23T13:07:45;98141.22;;;8.03;89.59
84483;BME280;74703;51.284;22.590;2024-02-23T13:12:46;98129.06;;;7.90;89.59
84483;BME280;74703;51.284;22.590;2024-02-23T13:17:46;98130.78;;;8.05;89.32
84483;BME280;74703;51.284;22.590;2024-02-23T13:22:47;98127.66;;;8.14;89.12
84483;BME280;74703;51.284;22.590;2024-02-23T13:27:47;98153.19;;;8.20;88.59
84483;BME280;74703;51.284;22.590;2024-02-23T13:32:48;98133.53;;;8.02;89.35
84483;BME280;74703;51.284;22.590;2024-02-23T13:37:48;98149.81;;;8.04;89.11
84483;BME280;74703;51.284;22.590;2024-02-23T13:42:49;98149.63;;;7.93;89.44
84483;BME280;74703;51.284;22.590;2024-02-23T13:48:16;98156.44;;;7.94;89.98
84483;BME280;74703;51.284;22.590;2024-02-23T13:53:18;98152.38;;;7.90;89.91
84483;BME280;74703;51.284;22.590;2024-02-23T13:58:19;98169.81;;;8.02;90.02
84483;BME280;74703;51.284;22.590;2024-02-23T14:03:21;98185.25;;;8.03;90.46
84483;BME280;74703;51.284;22.590;2024-02-23T14:08:23;98158.09;;;7.95;90.14
84483;BME280;74703;51.284;22.590;2024-02-23T14:13:23;98162.75;;;8.04;89.78
84483;BME280;74703;51.284;22.590;2024-02-23T14:18:24;98172.94;;;8.07;89.98
84483;BME280;74703;51.284;22.590;2024-02-23T14:23:24;98164.63;;;8.02;90.48
84483;BME280;74703;51.284;22.590;2024-02-23T14:28:25;98167.94;;;8.04;90.41
84483;BME280;74703;51.284;22.590;2024-02-23T14:33:26;98164.63;;;8.02;90.69
84483;BME280;74703;51.284;22.590;2024-02-23T14:38:26;98185.16;;;8.05;91.21
84483;BME280;74703;51.284;22.590;2024-02-23T14:43:27;98192.41;;;8.14;90.67
84483;BME280;74703;51.284;22.590;2024-02-23T14:48:27;98185.91;;;8.07;90.71
84483;BME280;74703;51.284;22.590;2024-02-23T14:53:28;98174.47;;;7.95;91.05
84483;BME280;74703;51.284;22.590;2024-02-23T14:58:29;98181.34;;;7.96;90.86
84483;BME280;74703;51.284;22.590;2024-02-23T15:03:29;98163.69;;;7.73;91.43
84483;BME280;74703;51.284;22.590;2024-02-23T15:08:31;98186.88;;;7.74;91.86
84483;BME280;74703;51.284;22.590;2024-02-23T15:13:32;98206.69;;;7.75;92.16
84483;BME280;74703;51.284;22.590;2024-02-23T15:18:32;98215.31;;;7.76;91.98
84483;BME280;74703;51.284;22.590;2024-02-23T15:23:33;98220.56;;;7.58;92.47
84483;BME280;74703;51.284;22.590;2024-02-23T15:28:34;98218.47;;;7.65;92.80
84483;BME280;74703;51.284;22.590;2024-02-23T15:33:35;98228.00;;;7.65;92.94
84483;BME280;74703;51.284;22.590;2024-02-23T15:38:38;98236.94;;;7.59;93.34
84483;BME280;74703;51.284;22.590;2024-02-23T15:43:39;98241.38;;;7.57;93.47
84483;BME280;74703;51.284;22.590;2024-02-23T15:48:40;98235.94;;;7.62;93.21
84483;BME280;74703;51.284;22.590;2024-02-23T15:53:40;98221.91;;;7.50;93.03
84483;BME280;74703;51.284;22.590;2024-02-23T15:58:41;98260.16;;;7.61;93.56
84483;BME280;74703;51.284;22.590;2024-02-23T16:03:41;98267.25;;;7.57;93.64
84483;BME280;74703;51.284;22.590;2024-02-23T16:08:43;98266.00;;;7.48;93.85
84483;BME280;74703;51.284;22.590;2024-02-23T16:13:44;98285.28;;;7.58;93.79
84483;BME280;74703;51.284;22.590;2024-02-23T16:18:45;98300.31;;;7.52;93.65
84483;BME280;74703;51.284;22.590;2024-02-23T16:23:46;98283.44;;;7.45;94.40
84483;BME280;74703;51.284;22.590;2024-02-23T16:28:47;98302.13;;;7.50;94.37
84483;BME280;74703;51.284;22.590;2024-02-23T16:33:47;98304.22;;;7.43;94.58
84483;BME280;74703;51.284;22.590;2024-02-23T16:38:48;98306.16;;;7.40;94.82
84483;BME280;74703;51.284;22.590;2024-02-23T16:43:49;98308.47;;;7.44;95.13
84483;BME280;74703;51.284;22.590;2024-02-23T16:48:49;98294.13;;;7.39;95.06
84483;BME280;74703;51.284;22.590;2024-02-23T16:53:50;98308.00;;;7.53;94.50
84483;BME280;74703;51.284;22.590;2024-02-23T16:58:51;98327.13;;;7.51;94.81
84483;BME280;74703;51.284;22.590;2024-02-23T17:03:51;98310.38;;;7.41;94.89
84483;BME280;74703;51.284;22.590;2024-02-23T17:08:52;98300.81;;;7.43;94.72
84483;BME280;74703;51.284;22.590;2024-02-23T17:13:53;98330.88;;;7.45;95.01
84483;BME280;74703;51.284;22.590;2024-02-23T17:18:55;98310.22;;;7.44;95.06
84483;BME280;74703;51.284;22.590;2024-02-23T17:23:56;98330.59;;;7.50;94.90
84483;BME280;74703;51.284;22.590;2024-02-23T17:28:56;98334.94;;;7.49;94.83
84483;BME280;74703;51.284;22.590;2024-02-23T17:33:57;98335.59;;;7.37;95.00
84483;BME280;74703;51.284;22.590;2024-02-23T17:38:57;98327.31;;;7.30;95.20
84483;BME280;74703;51.284;22.590;2024-02-23T17:43:58;98343.03;;;7.43;94.77
84483;BME280;74703;51.284;22.590;2024-02-23T17:48:58;98327.00;;;7.37;94.83
84483;BME280;74703;51.284;22.590;2024-02-23T17:53:59;98350.97;;;7.40;94.88
84483;BME280;74703;51.284;22.590;2024-02-23T17:59:00;98350.97;;;7.40;94.72
84483;BME280;74703;51.284;22.590;2024-02-23T18:04:01;98333.66;;;7.25;94.59
84483;BME280;74703;51.284;22.590;2024-02-23T18:09:01;98331.91;;;7.25;94.52
84483;BME280;74703;51.284;22.590;2024-02-23T18:14:03;98342.03;;;7.30;94.33
84483;BME280;74703;51.284;22.590;2024-02-23T18:19:04;98368.06;;;7.27;94.57
84483;BME280;74703;51.284;22.590;2024-02-23T18:24:05;98355.59;;;7.18;94.92
84483;BME280;74703;51.284;22.590;2024-02-23T18:29:06;98348.81;;;7.15;95.05
84483;BME280;74703;51.284;22.590;2024-02-23T18:34:07;98337.72;;;7.13;94.80
84483;BME280;74703;51.284;22.590;2024-02-23T18:39:07;98352.09;;;7.19;94.65
84483;BME280;74703;51.284;22.590;2024-02-23T18:44:12;98367.38;;;7.23;94.85
84483;BME280;74703;51.284;22.590;2024-02-23T18:49:13;98370.13;;;7.20;94.70
84483;BME280;74703;51.284;22.590;2024-02-23T18:54:14;98364.03;;;7.21;94.27
84483;BME280;74703;51.284;22.590;2024-02-23T18:59:14;98381.38;;;7.19;94.37
84483;BME280;74703;51.284;22.590;2024-02-23T19:04:15;98369.34;;;7.18;94.38
84483;BME280;74703;51.284;22.590;2024-02-23T19:09:15;98385.03;;;7.15;94.17
84483;BME280;74703;51.284;22.590;2024-02-23T19:14:16;98368.84;;;7.11;94.27
84483;BME280;74703;51.284;22.590;2024-02-23T19:19:17;98375.38;;;7.19;94.34
84483;BME280;74703;51.284;22.590;2024-02-23T19:24:17;98366.16;;;7.13;94.38
84483;BME280;74703;51.284;22.590;2024-02-23T19:29:19;98379.88;;;7.15;94.50
84483;BME280;74703;51.284;22.590;2024-02-23T19:34:19;98359.94;;;7.00;94.29
84483;BME280;74703;51.284;22.590;2024-02-23T19:39:20;98396.31;;;7.14;94.08
84483;BME280;74703;51.284;22.590;2024-02-23T19:44:21;98392.75;;;6.99;94.07
84483;BME280;74703;51.284;22.590;2024-02-23T19:49:22;98402.53;;;6.93;94.15
84483;BME280;74703;51.284;22.590;2024-02-23T19:54:22;98401.56;;;6.78;94.50
84483;BME280;74703;51.284;22.590;2024-02-23T19:59:23;98411.47;;;6.68;94.14
84483;BME280;74703;51.284;22.590;2024-02-23T20:04:23;98419.84;;;6.56;94.38
84483;BME280;74703;51.284;22.590;2024-02-23T20:09:24;98428.28;;;6.59;94.67
84483;BME280;74703;51.284;22.590;2024-02-23T20:14:26;98424.09;;;6.57;94.72
84483;BME280;74703;51.284;22.590;2024-02-23T20:19:28;98406.13;;;6.36;94.60
84483;BME280;74703;51.284;22.590;2024-02-23T20:24:29;98413.63;;;6.41;94.97
84483;BME280;74703;51.284;22.590;2024-02-23T20:29:29;98409.34;;;6.41;94.81
84483;BME280;74703;51.284;22.590;2024-02-23T20:34:31;98385.13;;;6.25;94.90
84483;BME280;74703;51.284;22.590;2024-02-23T20:39:31;98399.53;;;6.12;95.00
84483;BME280;74703;51.284;22.590;2024-02-23T20:44:33;98406.44;;;6.11;95.11
84483;BME280;74703;51.284;22.590;2024-02-23T20:49:33;98430.50;;;6.12;95.10
84483;BME280;74703;51.284;22.590;2024-02-23T20:54:34;98436.56;;;6.11;95.31
84483;BME280;74703;51.284;22.590;2024-02-23T20:59:34;98437.84;;;6.02;94.99
84483;BME280;74703;51.284;22.590;2024-02-23T21:04:35;98429.72;;;5.91;95.06
84483;BME280;74703;51.284;22.590;2024-02-23T21:09:35;98429.53;;;5.95;95.86
84483;BME280;74703;51.284;22.590;2024-02-23T21:14:36;98415.38;;;5.84;95.46
84483;BME280;74703;51.284;22.590;2024-02-23T21:19:38;98432.34;;;5.89;95.29
84483;BME280;74703;51.284;22.590;2024-02-23T21:24:39;98430.53;;;5.91;94.98
84483;BME280;74703;51.284;22.590;2024-02-23T21:29:43;98424.25;;;5.78;95.05
84483;BME280;74703;51.284;22.590;2024-02-23T21:34:46;98432.06;;;5.77;95.10
84483;BME280;74703;51.284;22.590;2024-02-23T21:39:47;98418.09;;;5.62;94.59
84483;BME280;74703;51.284;22.590;2024-02-23T21:44:47;98434.41;;;5.62;95.17
84483;BME280;74703;51.284;22.590;2024-02-23T21:49:48;98425.91;;;5.60;95.13
84483;BME280;74703;51.284;22.590;2024-02-23T21:54:48;98429.84;;;5.69;95.28
84483;BME280;74703;51.284;22.590;2024-02-23T21:59:49;98420.75;;;5.60;95.03
84483;BME280;74703;51.284;22.590;2024-02-23T22:04:53;98411.25;;;5.61;95.24
84483;BME280;74703;51.284;22.590;2024-02-23T22:09:55;98431.34;;;5.54;94.60
84483;BME280;74703;51.284;22.590;2024-02-23T22:14:56;98432.50;;;5.47;94.95
84483;BME280;74703;51.284;22.590;2024-02-23T22:19:59;98421.09;;;5.32;94.92
84483;BME280;74703;51.284;22.590;2024-02-23T22:25:00;98410.47;;;5.19;95.01
84483;BME280;74703;51.284;22.590;2024-02-23T22:30:02;98419.50;;;5.09;95.24
84483;BME280;74703;51.284;22.590;2024-02-23T22:35:03;98435.16;;;5.04;95.08
84483;BME280;74703;51.284;22.590;2024-02-23T22:40:04;98424.47;;;4.93;95.45
84483;BME280;74703;51.284;22.590;2024-02-23T22:45:08;98424.81;;;4.84;95.12
84483;BME280;74703;51.284;22.590;2024-02-23T22:50:12;98425.84;;;4.80;94.60
84483;BME280;74703;51.284;22.590;2024-02-23T22:55:12;98411.53;;;4.73;94.92
84483;BME280;74703;51.284;22.590;2024-02-23T23:00:13;98433.53;;;4.81;95.08
84483;BME280;74703;51.284;22.590;2024-02-23T23:05:14;98440.22;;;4.86;95.15
84483;BME280;74703;51.284;22.590;2024-02-23T23:10:15;98437.78;;;4.82;95.36
84483;BME280;74703;51.284;22.590;2024-02-23T23:15:15;98443.38;;;4.92;95.71
84483;BME280;74703;51.284;22.590;2024-02-23T23:20:16;98437.00;;;5.01;95.54
84483;BME280;74703;51.284;22.590;2024-02-23T23:25:16;98433.00;;;5.14;95.50
84483;BME280;74703;51.284;22.590;2024-02-23T23:30:17;98428.91;;;5.10;94.92
84483;BME280;74703;51.284;22.590;2024-02-23T23:35:17;98429.09;;;5.05;94.16
84483;BME280;74703;51.284;22.590;2024-02-23T23:40:18;98426.31;;;5.10;94.41
84483;BME280;74703;51.284;22.590;2024-02-23T23:45:19;98438.03;;;5.17;94.49
84483;BME280;74703;51.284;22.590;2024-02-23T23:50:19;98436.72;;;5.09;94.56
84483;BME280;74703;51.284;22.590;2024-02-23T23:55:20;98440.00;;;5.12;94.12
